Terminal Aerodrome Forecast
Issued by NWS Albany, NY

Home | Current Version | Previous Version | Text Only | Print | Product List | Glossary On
Versions: 1 2 3 4 5 6 7 8 9 10 11 12 13 14 15 16 17 18 19 20 21 22 23 24
000
FTUS41 KALY 060520
TAFGFL
TAF
KGFL 060520Z 0606/0706 00000KT 6SM BR SCT060
      TEMPO 0607/0611 1/2SM FG VV002
     FM061100 00000KT 3SM BR SCT002 SCT250
     FM061300 VRB03KT P6SM FEW030 SCT250
     FM061800 18007KT P6SM FEW045 SCT200
     FM070000 VRB03KT P6SM SCT035 BKN050=

USA.gov is the U.S. government's official web portal to all federal, state and local government web resources and services.